Time;durP1;ratioP1;P1;durP2;ratioP2;P2;SDS_P1;SDS_P2;PMS_P1;PMS_P2;Temp;Humidity;BMP_temperature;BMP_pressure;BME280_temperature;BME280_humidity;BME280_pressure;Samples;Min_cycle;Max_cycle;Signal;HPM_P1;HPM_P2
2021/11/22 00:00:18;;;;;;;28.1;12.35;;;;;;;3.61;68.63477;94807.79;;;;
2021/11/22 00:01:21;;;;;;;28.1;12.35;;;;;;;3.61;68.63477;94807.79;;;;
2021/11/22 00:02:22;;;;;;;28.1;12.35;;;;;;;3.61;68.63477;94807.79;;;;
2021/11/22 00:03:24;;;;;;;28.1;12.35;;;;;;;3.61;68.63477;94807.79;;;;
2021/11/22 00:04:25;;;;;;;28.1;12.35;;;;;;;3.61;68.63477;94807.79;;;;
2021/11/22 00:05:25;;;;;;;28.1;12.35;;;;;;;3.61;68.63477;94807.79;;;;
2021/11/22 00:06:26;;;;;;;28.1;12.35;;;;;;;3.61;68.63477;94807.79;;;;
2021/11/22 00:07:27;;;;;;;28.1;12.35;;;;;;;3.61;68.63477;94807.79;;;;
2021/11/22 00:08:28;;;;;;;28.1;12.35;;;;;;;3.61;68.63477;94807.79;;;;
2021/11/22 00:09:28;;;;;;;28.1;12.35;;;;;;;3.61;68.63477;94807.79;;;;
2021/11/22 00:10:29;;;;;;;28.1;12.35;;;;;;;3.61;68.63477;94807.79;;;;
2021/11/22 00:11:29;;;;;;;25.45;11.05;;;;;;;3.59;68.91602;94786.66;;;;
2021/11/22 00:12:33;;;;;;;25.45;11.05;;;;;;;3.59;68.91602;94786.66;;;;
2021/11/22 00:13:34;;;;;;;25.45;11.05;;;;;;;3.59;68.91602;94786.66;;;;
2021/11/22 00:14:35;;;;;;;25.45;11.05;;;;;;;3.59;68.91602;94786.66;;;;
2021/11/22 00:15:36;;;;;;;25.45;11.05;;;;;;;3.59;68.91602;94786.66;;;;
2021/11/22 00:16:36;;;;;;;25.45;11.05;;;;;;;3.59;68.91602;94786.66;;;;
2021/11/22 00:17:37;;;;;;;25.45;11.05;;;;;;;3.59;68.91602;94786.66;;;;
2021/11/22 00:18:38;;;;;;;25.45;11.05;;;;;;;3.59;68.91602;94786.66;;;;
2021/11/22 00:19:39;;;;;;;25.45;11.05;;;;;;;3.59;68.91602;94786.66;;;;
2021/11/22 00:20:40;;;;;;;25.45;11.05;;;;;;;3.59;68.91602;94786.66;;;;
2021/11/22 00:21:40;;;;;;;25.45;11.05;;;;;;;3.59;68.91602;94786.66;;;;
2021/11/22 00:22:43;;;;;;;23.7;10.55;;;;;;;3.58;69.11523;94798.35;;;;
2021/11/22 00:23:44;;;;;;;23.7;10.55;;;;;;;3.58;69.11523;94798.35;;;;
2021/11/22 00:24:45;;;;;;;23.7;10.55;;;;;;;3.58;69.11523;94798.35;;;;
2021/11/22 00:25:45;;;;;;;23.7;10.55;;;;;;;3.58;69.11523;94798.35;;;;
2021/11/22 00:26:46;;;;;;;23.7;10.55;;;;;;;3.58;69.11523;94798.35;;;;
2021/11/22 00:27:46;;;;;;;23.7;10.55;;;;;;;3.58;69.11523;94798.35;;;;
2021/11/22 00:28:47;;;;;;;23.7;10.55;;;;;;;3.58;69.11523;94798.35;;;;
2021/11/22 00:29:48;;;;;;;23.7;10.55;;;;;;;3.58;69.11523;94798.35;;;;
2021/11/22 00:30:49;;;;;;;23.7;10.55;;;;;;;3.58;69.11523;94798.35;;;;
2021/11/22 00:31:51;;;;;;;23.7;10.55;;;;;;;3.58;69.11523;94798.35;;;;
2021/11/22 00:32:52;;;;;;;21.75;9.9;;;;;;;3.56;69.33203;94808.94;;;;
2021/11/22 00:33:53;;;;;;;21.75;9.9;;;;;;;3.56;69.33203;94808.94;;;;
2021/11/22 00:34:56;;;;;;;21.75;9.9;;;;;;;3.56;69.33203;94808.94;;;;
2021/11/22 00:35:56;;;;;;;21.75;9.9;;;;;;;3.56;69.33203;94808.94;;;;
2021/11/22 00:36:57;;;;;;;21.75;9.9;;;;;;;3.56;69.33203;94808.94;;;;
2021/11/22 00:37:58;;;;;;;21.75;9.9;;;;;;;3.56;69.33203;94808.94;;;;
2021/11/22 00:38:59;;;;;;;21.75;9.9;;;;;;;3.56;69.33203;94808.94;;;;
2021/11/22 00:40:00;;;;;;;21.75;9.9;;;;;;;3.56;69.33203;94808.94;;;;
2021/11/22 00:41:02;;;;;;;21.75;9.9;;;;;;;3.56;69.33203;94808.94;;;;
2021/11/22 00:42:03;;;;;;;21.75;9.9;;;;;;;3.56;69.33203;94808.94;;;;
2021/11/22 00:43:06;;;;;;;21.75;9.9;;;;;;;3.56;69.33203;94808.94;;;;
2021/11/22 00:44:07;;;;;;;23.15;10.65;;;;;;;3.53;69.51855;94805.22;;;;
2021/11/22 00:45:07;;;;;;;23.15;10.65;;;;;;;3.53;69.51855;94805.22;;;;
2021/11/22 00:46:08;;;;;;;23.15;10.65;;;;;;;3.53;69.51855;94805.22;;;;
2021/11/22 00:47:08;;;;;;;23.15;10.65;;;;;;;3.53;69.51855;94805.22;;;;
2021/11/22 00:48:11;;;;;;;23.15;10.65;;;;;;;3.53;69.51855;94805.22;;;;
2021/11/22 00:49:11;;;;;;;23.15;10.65;;;;;;;3.53;69.51855;94805.22;;;;
2021/11/22 00:50:11;;;;;;;23.15;10.65;;;;;;;3.53;69.51855;94805.22;;;;
2021/11/22 00:51:12;;;;;;;23.15;10.65;;;;;;;3.53;69.51855;94805.22;;;;
2021/11/22 00:52:13;;;;;;;23.15;10.65;;;;;;;3.53;69.51855;94805.22;;;;
2021/11/22 00:53:13;;;;;;;23.15;10.65;;;;;;;3.53;69.51855;94805.22;;;;
2021/11/22 00:54:14;;;;;;;17.25;9.049999;;;;;;;3.6;69.59277;94822.06;;;;
2021/11/22 00:55:15;;;;;;;17.25;9.049999;;;;;;;3.6;69.59277;94822.06;;;;
2021/11/22 00:56:17;;;;;;;17.25;9.049999;;;;;;;3.6;69.59277;94822.06;;;;
2021/11/22 00:57:17;;;;;;;17.25;9.049999;;;;;;;3.6;69.59277;94822.06;;;;
2021/11/22 00:58:18;;;;;;;17.25;9.049999;;;;;;;3.6;69.59277;94822.06;;;;
2021/11/22 00:59:18;;;;;;;17.25;9.049999;;;;;;;3.6;69.59277;94822.06;;;;
2021/11/22 01:00:19;;;;;;;17.25;9.049999;;;;;;;3.6;69.59277;94822.06;;;;
2021/11/22 01:01:21;;;;;;;17.25;9.049999;;;;;;;3.6;69.59277;94822.06;;;;
2021/11/22 01:02:22;;;;;;;17.25;9.049999;;;;;;;3.6;69.59277;94822.06;;;;
2021/11/22 01:03:22;;;;;;;17.25;9.049999;;;;;;;3.6;69.59277;94822.06;;;;
2021/11/22 01:04:23;;;;;;;17.25;9.049999;;;;;;;3.6;69.59277;94822.06;;;;
2021/11/22 01:05:24;;;;;;;17.95;9;;;;;;;3.64;69.62012;94824.64;;;;
2021/11/22 01:06:25;;;;;;;17.95;9;;;;;;;3.64;69.62012;94824.64;;;;
2021/11/22 01:07:25;;;;;;;17.95;9;;;;;;;3.64;69.62012;94824.64;;;;
2021/11/22 01:08:26;;;;;;;17.95;9;;;;;;;3.64;69.62012;94824.64;;;;
2021/11/22 01:09:26;;;;;;;17.95;9;;;;;;;3.64;69.62012;94824.64;;;;
2021/11/22 01:10:27;;;;;;;17.95;9;;;;;;;3.64;69.62012;94824.64;;;;
2021/11/22 01:11:27;;;;;;;17.95;9;;;;;;;3.64;69.62012;94824.64;;;;
2021/11/22 01:12:28;;;;;;;17.95;9;;;;;;;3.64;69.62012;94824.64;;;;
2021/11/22 01:13:29;;;;;;;17.95;9;;;;;;;3.64;69.62012;94824.64;;;;
2021/11/22 01:14:29;;;;;;;17.95;9;;;;;;;3.64;69.62012;94824.64;;;;
2021/11/22 01:15:31;;;;;;;19.25;9.1;;;;;;;3.66;69.71777;94823.1;;;;
2021/11/22 01:16:32;;;;;;;19.25;9.1;;;;;;;3.66;69.71777;94823.1;;;;
2021/11/22 01:17:32;;;;;;;19.25;9.1;;;;;;;3.66;69.71777;94823.1;;;;
2021/11/22 01:18:33;;;;;;;19.25;9.1;;;;;;;3.66;69.71777;94823.1;;;;
2021/11/22 01:19:33;;;;;;;19.25;9.1;;;;;;;3.66;69.71777;94823.1;;;;
2021/11/22 01:20:34;;;;;;;19.25;9.1;;;;;;;3.66;69.71777;94823.1;;;;
2021/11/22 01:21:35;;;;;;;19.25;9.1;;;;;;;3.66;69.71777;94823.1;;;;
2021/11/22 01:22:37;;;;;;;19.25;9.1;;;;;;;3.66;69.71777;94823.1;;;;
2021/11/22 01:23:37;;;;;;;19.25;9.1;;;;;;;3.66;69.71777;94823.1;;;;
2021/11/22 01:24:38;;;;;;;19.25;9.1;;;;;;;3.66;69.71777;94823.1;;;;
2021/11/22 01:25:39;;;;;;;19.25;9.1;;;;;;;3.66;69.71777;94823.1;;;;
2021/11/22 01:26:42;;;;;;;19.1;9.099998;;;;;;;3.67;69.8252;94832.73;;;;
2021/11/22 01:27:42;;;;;;;19.1;9.099998;;;;;;;3.67;69.8252;94832.73;;;;
2021/11/22 01:28:43;;;;;;;19.1;9.099998;;;;;;;3.67;69.8252;94832.73;;;;
2021/11/22 01:29:44;;;;;;;19.1;9.099998;;;;;;;3.67;69.8252;94832.73;;;;
2021/11/22 01:30:44;;;;;;;19.1;9.099998;;;;;;;3.67;69.8252;94832.73;;;;
2021/11/22 01:31:45;;;;;;;19.1;9.099998;;;;;;;3.67;69.8252;94832.73;;;;
2021/11/22 01:32:45;;;;;;;19.1;9.099998;;;;;;;3.67;69.8252;94832.73;;;;
2021/11/22 01:33:46;;;;;;;19.1;9.099998;;;;;;;3.67;69.8252;94832.73;;;;
2021/11/22 01:34:47;;;;;;;19.1;9.099998;;;;;;;3.67;69.8252;94832.73;;;;
2021/11/22 01:35:47;;;;;;;19.1;9.099998;;;;;;;3.67;69.8252;94832.73;;;;
2021/11/22 01:36:48;;;;;;;18.75;9.349999;;;;;;;3.66;69.94922;94839.11;;;;
2021/11/22 01:37:49;;;;;;;18.75;9.349999;;;;;;;3.66;69.94922;94839.11;;;;
2021/11/22 01:38:49;;;;;;;18.75;9.349999;;;;;;;3.66;69.94922;94839.11;;;;
2021/11/22 01:39:50;;;;;;;18.75;9.349999;;;;;;;3.66;69.94922;94839.11;;;;
2021/11/22 01:40:51;;;;;;;18.75;9.349999;;;;;;;3.66;69.94922;94839.11;;;;
2021/11/22 01:41:51;;;;;;;18.75;9.349999;;;;;;;3.66;69.94922;94839.11;;;;
2021/11/22 01:42:52;;;;;;;18.75;9.349999;;;;;;;3.66;69.94922;94839.11;;;;
2021/11/22 01:43:54;;;;;;;18.75;9.349999;;;;;;;3.66;69.94922;94839.11;;;;
2021/11/22 01:44:55;;;;;;;18.75;9.349999;;;;;;;3.66;69.94922;94839.11;;;;
2021/11/22 01:45:56;;;;;;;18.75;9.349999;;;;;;;3.66;69.94922;94839.11;;;;
2021/11/22 01:46:57;;;;;;;18.75;9.349999;;;;;;;3.66;69.94922;94839.11;;;;
2021/11/22 01:47:58;;;;;;;17.4;8.950001;;;;;;;3.66;70.05566;94838.7;;;;
2021/11/22 01:49:00;;;;;;;17.4;8.950001;;;;;;;3.66;70.05566;94838.7;;;;
2021/11/22 01:50:00;;;;;;;17.4;8.950001;;;;;;;3.66;70.05566;94838.7;;;;
2021/11/22 01:51:01;;;;;;;17.4;8.950001;;;;;;;3.66;70.05566;94838.7;;;;
2021/11/22 01:52:02;;;;;;;17.4;8.950001;;;;;;;3.66;70.05566;94838.7;;;;
2021/11/22 01:53:05;;;;;;;17.4;8.950001;;;;;;;3.66;70.05566;94838.7;;;;
2021/11/22 01:54:05;;;;;;;17.4;8.950001;;;;;;;3.66;70.05566;94838.7;;;;
2021/11/22 01:55:06;;;;;;;17.4;8.950001;;;;;;;3.66;70.05566;94838.7;;;;
2021/11/22 01:56:08;;;;;;;17.4;8.950001;;;;;;;3.66;70.05566;94838.7;;;;
2021/11/22 01:57:08;;;;;;;17.4;8.950001;;;;;;;3.66;70.05566;94838.7;;;;
2021/11/22 01:58:09;;;;;;;18.85;10.05;;;;;;;3.65;70.24316;94843.2;;;;
2021/11/22 01:59:10;;;;;;;18.85;10.05;;;;;;;3.65;70.24316;94843.2;;;;
2021/11/22 02:00:13;;;;;;;18.85;10.05;;;;;;;3.65;70.24316;94843.2;;;;
2021/11/22 02:01:18;;;;;;;18.85;10.05;;;;;;;3.65;70.24316;94843.2;;;;
2021/11/22 02:02:19;;;;;;;18.85;10.05;;;;;;;3.65;70.24316;94843.2;;;;
2021/11/22 02:03:19;;;;;;;18.85;10.05;;;;;;;3.65;70.24316;94843.2;;;;
2021/11/22 02:04:21;;;;;;;18.85;10.05;;;;;;;3.65;70.24316;94843.2;;;;
2021/11/22 02:05:21;;;;;;;18.85;10.05;;;;;;;3.65;70.24316;94843.2;;;;
2021/11/22 02:06:22;;;;;;;18.85;10.05;;;;;;;3.65;70.24316;94843.2;;;;
2021/11/22 02:07:24;;;;;;;18.85;10.05;;;;;;;3.65;70.24316;94843.2;;;;
2021/11/22 02:08:24;;;;;;;18.85;10.05;;;;;;;3.65;70.24316;94843.2;;;;
2021/11/22 02:09:25;;;;;;;18;9.1;;;;;;;3.64;70.38965;94855.42;;;;
2021/11/22 02:10:25;;;;;;;18;9.1;;;;;;;3.64;70.38965;94855.42;;;;
2021/11/22 02:11:26;;;;;;;18;9.1;;;;;;;3.64;70.38965;94855.42;;;;
2021/11/22 02:12:29;;;;;;;18;9.1;;;;;;;3.64;70.38965;94855.42;;;;
2021/11/22 02:13:30;;;;;;;18;9.1;;;;;;;3.64;70.38965;94855.42;;;;
2021/11/22 02:14:31;;;;;;;18;9.1;;;;;;;3.64;70.38965;94855.42;;;;
2021/11/22 02:15:32;;;;;;;18;9.1;;;;;;;3.64;70.38965;94855.42;;;;
2021/11/22 02:16:34;;;;;;;18;9.1;;;;;;;3.64;70.38965;94855.42;;;;
2021/11/22 02:17:36;;;;;;;18;9.1;;;;;;;3.64;70.38965;94855.42;;;;
2021/11/22 02:18:38;;;;;;;18;9.1;;;;;;;3.64;70.38965;94855.42;;;;
2021/11/22 02:19:42;;;;;;;13.2;7.599999;;;;;;;3.63;70.5459;94861.8;;;;
2021/11/22 02:20:52;;;;;;;13.2;7.599999;;;;;;;3.63;70.5459;94861.8;;;;
2021/11/22 02:21:53;;;;;;;13.2;7.599999;;;;;;;3.63;70.5459;94861.8;;;;
2021/11/22 02:22:53;;;;;;;13.2;7.599999;;;;;;;3.63;70.5459;94861.8;;;;
2021/11/22 02:23:58;;;;;;;13.2;7.599999;;;;;;;3.63;70.5459;94861.8;;;;
2021/11/22 02:24:59;;;;;;;13.2;7.599999;;;;;;;3.63;70.5459;94861.8;;;;
2021/11/22 02:26:03;;;;;;;13.2;7.599999;;;;;;;3.63;70.5459;94861.8;;;;
2021/11/22 02:27:04;;;;;;;13.2;7.599999;;;;;;;3.63;70.5459;94861.8;;;;
2021/11/22 02:28:05;;;;;;;13.2;7.599999;;;;;;;3.63;70.5459;94861.8;;;;
2021/11/22 02:29:06;;;;;;;13.2;7.599999;;;;;;;3.63;70.5459;94861.8;;;;
2021/11/22 02:30:07;;;;;;;15.85;8.749999;;;;;;;3.63;70.7041;94876.9;;;;
2021/11/22 02:31:10;;;;;;;15.85;8.749999;;;;;;;3.63;70.7041;94876.9;;;;
2021/11/22 02:32:11;;;;;;;15.85;8.749999;;;;;;;3.63;70.7041;94876.9;;;;
2021/11/22 02:33:11;;;;;;;15.85;8.749999;;;;;;;3.63;70.7041;94876.9;;;;
2021/11/22 02:34:14;;;;;;;15.85;8.749999;;;;;;;3.63;70.7041;94876.9;;;;
2021/11/22 02:35:15;;;;;;;15.85;8.749999;;;;;;;3.63;70.7041;94876.9;;;;
2021/11/22 02:36:18;;;;;;;15.85;8.749999;;;;;;;3.63;70.7041;94876.9;;;;
2021/11/22 02:37:19;;;;;;;15.85;8.749999;;;;;;;3.63;70.7041;94876.9;;;;
2021/11/22 02:38:20;;;;;;;15.85;8.749999;;;;;;;3.63;70.7041;94876.9;;;;
2021/11/22 02:39:23;;;;;;;15.85;8.749999;;;;;;;3.63;70.7041;94876.9;;;;
2021/11/22 02:40:23;;;;;;;15.85;8.749999;;;;;;;3.63;70.7041;94876.9;;;;
2021/11/22 02:41:24;;;;;;;15.2;8.549999;;;;;;;3.62;70.86035;94873.41;;;;
2021/11/22 02:42:24;;;;;;;15.2;8.549999;;;;;;;3.62;70.86035;94873.41;;;;
2021/11/22 02:43:26;;;;;;;15.2;8.549999;;;;;;;3.62;70.86035;94873.41;;;;
2021/11/22 02:44:29;;;;;;;15.2;8.549999;;;;;;;3.62;70.86035;94873.41;;;;
2021/11/22 02:45:30;;;;;;;15.2;8.549999;;;;;;;3.62;70.86035;94873.41;;;;
2021/11/22 02:46:31;;;;;;;15.2;8.549999;;;;;;;3.62;70.86035;94873.41;;;;
2021/11/22 02:47:31;;;;;;;15.2;8.549999;;;;;;;3.62;70.86035;94873.41;;;;
2021/11/22 02:48:32;;;;;;;15.2;8.549999;;;;;;;3.62;70.86035;94873.41;;;;
2021/11/22 02:49:32;;;;;;;15.2;8.549999;;;;;;;3.62;70.86035;94873.41;;;;
2021/11/22 02:50:33;;;;;;;15.2;8.549999;;;;;;;3.62;70.86035;94873.41;;;;
2021/11/22 02:51:34;;;;;;;15.5;8.05;;;;;;;3.55;71.03809;94884.67;;;;
2021/11/22 02:52:35;;;;;;;15.5;8.05;;;;;;;3.55;71.03809;94884.67;;;;
2021/11/22 02:53:37;;;;;;;15.5;8.05;;;;;;;3.55;71.03809;94884.67;;;;
2021/11/22 02:54:37;;;;;;;15.5;8.05;;;;;;;3.55;71.03809;94884.67;;;;
2021/11/22 02:55:38;;;;;;;15.5;8.05;;;;;;;3.55;71.03809;94884.67;;;;
2021/11/22 02:56:39;;;;;;;15.5;8.05;;;;;;;3.55;71.03809;94884.67;;;;
2021/11/22 02:57:40;;;;;;;15.5;8.05;;;;;;;3.55;71.03809;94884.67;;;;
2021/11/22 02:58:41;;;;;;;15.5;8.05;;;;;;;3.55;71.03809;94884.67;;;;
2021/11/22 02:59:42;;;;;;;15.5;8.05;;;;;;;3.55;71.03809;94884.67;;;;
2021/11/22 03:00:43;;;;;;;15.5;8.05;;;;;;;3.55;71.03809;94884.67;;;;
2021/11/22 03:01:43;;;;;;;15.5;8.05;;;;;;;3.55;71.03809;94884.67;;;;
2021/11/22 03:02:44;;;;;;;18.55;9.199999;;;;;;;3.47;71.31152;94883.42;;;;
2021/11/22 03:03:45;;;;;;;18.55;9.199999;;;;;;;3.47;71.31152;94883.42;;;;
2021/11/22 03:04:46;;;;;;;18.55;9.199999;;;;;;;3.47;71.31152;94883.42;;;;
2021/11/22 03:05:46;;;;;;;18.55;9.199999;;;;;;;3.47;71.31152;94883.42;;;;
2021/11/22 03:06:47;;;;;;;18.55;9.199999;;;;;;;3.47;71.31152;94883.42;;;;
2021/11/22 03:07:47;;;;;;;18.55;9.199999;;;;;;;3.47;71.31152;94883.42;;;;
2021/11/22 03:08:50;;;;;;;18.55;9.199999;;;;;;;3.47;71.31152;94883.42;;;;
2021/11/22 03:09:51;;;;;;;18.55;9.199999;;;;;;;3.47;71.31152;94883.42;;;;
2021/11/22 03:10:51;;;;;;;18.55;9.199999;;;;;;;3.47;71.31152;94883.42;;;;
2021/11/22 03:11:52;;;;;;;18.55;9.199999;;;;;;;3.47;71.31152;94883.42;;;;
2021/11/22 03:12:53;;;;;;;19.05;9.550001;;;;;;;3.5;71.52539;94882.62;;;;
2021/11/22 03:13:54;;;;;;;19.05;9.550001;;;;;;;3.5;71.52539;94882.62;;;;
2021/11/22 03:14:55;;;;;;;19.05;9.550001;;;;;;;3.5;71.52539;94882.62;;;;
2021/11/22 03:15:56;;;;;;;19.05;9.550001;;;;;;;3.5;71.52539;94882.62;;;;
2021/11/22 03:16:57;;;;;;;19.05;9.550001;;;;;;;3.5;71.52539;94882.62;;;;
2021/11/22 03:17:58;;;;;;;19.05;9.550001;;;;;;;3.5;71.52539;94882.62;;;;
2021/11/22 03:18:58;;;;;;;19.05;9.550001;;;;;;;3.5;71.52539;94882.62;;;;
2021/11/22 03:19:59;;;;;;;19.05;9.550001;;;;;;;3.5;71.52539;94882.62;;;;
2021/11/22 03:20:59;;;;;;;19.05;9.550001;;;;;;;3.5;71.52539;94882.62;;;;
2021/11/22 03:22:00;;;;;;;19.05;9.550001;;;;;;;3.5;71.52539;94882.62;;;;
2021/11/22 03:23:01;;;;;;;19.05;9.550001;;;;;;;3.5;71.52539;94882.62;;;;
2021/11/22 03:24:02;;;;;;;17.85;9.85;;;;;;;3.53;71.54199;94890.63;;;;
2021/11/22 03:25:03;;;;;;;17.85;9.85;;;;;;;3.53;71.54199;94890.63;;;;
2021/11/22 03:26:05;;;;;;;17.85;9.85;;;;;;;3.53;71.54199;94890.63;;;;
2021/11/22 03:27:06;;;;;;;17.85;9.85;;;;;;;3.53;71.54199;94890.63;;;;
2021/11/22 03:28:07;;;;;;;17.85;9.85;;;;;;;3.53;71.54199;94890.63;;;;
2021/11/22 03:29:08;;;;;;;17.85;9.85;;;;;;;3.53;71.54199;94890.63;;;;
2021/11/22 03:30:09;;;;;;;17.85;9.85;;;;;;;3.53;71.54199;94890.63;;;;
2021/11/22 03:31:11;;;;;;;17.85;9.85;;;;;;;3.53;71.54199;94890.63;;;;
2021/11/22 03:32:12;;;;;;;17.85;9.85;;;;;;;3.53;71.54199;94890.63;;;;
2021/11/22 03:33:12;;;;;;;17.85;9.85;;;;;;;3.53;71.54199;94890.63;;;;
2021/11/22 03:34:14;;;;;;;18.7;9.9;;;;;;;3.55;71.60645;94897.09;;;;
2021/11/22 03:35:15;;;;;;;18.7;9.9;;;;;;;3.55;71.60645;94897.09;;;;
2021/11/22 03:36:16;;;;;;;18.7;9.9;;;;;;;3.55;71.60645;94897.09;;;;
2021/11/22 03:37:16;;;;;;;18.7;9.9;;;;;;;3.55;71.60645;94897.09;;;;
2021/11/22 03:38:17;;;;;;;18.7;9.9;;;;;;;3.55;71.60645;94897.09;;;;
2021/11/22 03:39:21;;;;;;;18.7;9.9;;;;;;;3.55;71.60645;94897.09;;;;
2021/11/22 03:40:21;;;;;;;18.7;9.9;;;;;;;3.55;71.60645;94897.09;;;;
2021/11/22 03:41:23;;;;;;;18.7;9.9;;;;;;;3.55;71.60645;94897.09;;;;
2021/11/22 03:42:24;;;;;;;18.7;9.9;;;;;;;3.55;71.60645;94897.09;;;;
2021/11/22 03:43:29;;;;;;;18.7;9.9;;;;;;;3.55;71.60645;94897.09;;;;
2021/11/22 03:44:31;;;;;;;18.7;9.9;;;;;;;3.55;71.60645;94897.09;;;;
2021/11/22 03:45:32;;;;;;;18.7;9.9;;;;;;;3.55;71.60645;94897.09;;;;
2021/11/22 03:46:34;;;;;;;18.7;9.9;;;;;;;3.55;71.60645;94897.09;;;;
2021/11/22 03:47:36;;;;;;;18.7;9.9;;;;;;;3.55;71.60645;94897.09;;;;
2021/11/22 03:48:37;;;;;;;18.7;9.9;;;;;;;3.55;71.60645;94897.09;;;;
2021/11/22 03:49:38;;;;;;;18.7;9.9;;;;;;;3.55;71.60645;94897.09;;;;
2021/11/22 03:50:39;;;;;;;18.7;9.9;;;;;;;3.55;71.60645;94897.09;;;;
2021/11/22 03:51:40;;;;;;;18.7;9.9;;;;;;;3.55;71.60645;94897.09;;;;
2021/11/22 03:52:41;;;;;;;18.7;9.9;;;;;;;3.55;71.60645;94897.09;;;;
2021/11/22 03:53:41;;;;;;;18.7;9.9;;;;;;;3.55;71.60645;94897.09;;;;
2021/11/22 03:54:42;;;;;;;18.7;9.9;;;;;;;3.55;71.60645;94897.09;;;;
2021/11/22 03:55:43;;;;;;;23.15;11.95;;;;;;;3.59;71.87793;94909.44;;;;
2021/11/22 03:56:44;;;;;;;23.15;11.95;;;;;;;3.59;71.87793;94909.44;;;;
2021/11/22 03:57:44;;;;;;;23.15;11.95;;;;;;;3.59;71.87793;94909.44;;;;
2021/11/22 03:58:45;;;;;;;23.15;11.95;;;;;;;3.59;71.87793;94909.44;;;;
2021/11/22 03:59:46;;;;;;;23.15;11.95;;;;;;;3.59;71.87793;94909.44;;;;
2021/11/22 04:00:47;;;;;;;23.15;11.95;;;;;;;3.59;71.87793;94909.44;;;;
2021/11/22 04:01:48;;;;;;;23.15;11.95;;;;;;;3.59;71.87793;94909.44;;;;
2021/11/22 04:02:48;;;;;;;23.15;11.95;;;;;;;3.59;71.87793;94909.44;;;;
2021/11/22 04:03:49;;;;;;;23.15;11.95;;;;;;;3.59;71.87793;94909.44;;;;
2021/11/22 04:04:50;;;;;;;23.15;11.95;;;;;;;3.59;71.87793;94909.44;;;;
2021/11/22 04:05:51;;;;;;;23.15;11.95;;;;;;;3.59;71.87793;94909.44;;;;
2021/11/22 04:06:52;;;;;;;20.9;11.1;;;;;;;3.58;71.97168;94918.87;;;;
2021/11/22 04:07:52;;;;;;;20.9;11.1;;;;;;;3.58;71.97168;94918.87;;;;
2021/11/22 04:08:53;;;;;;;20.9;11.1;;;;;;;3.58;71.97168;94918.87;;;;
2021/11/22 04:09:55;;;;;;;20.9;11.1;;;;;;;3.58;71.97168;94918.87;;;;
2021/11/22 04:10:55;;;;;;;20.9;11.1;;;;;;;3.58;71.97168;94918.87;;;;
2021/11/22 04:11:56;;;;;;;20.9;11.1;;;;;;;3.58;71.97168;94918.87;;;;
2021/11/22 04:12:56;;;;;;;20.9;11.1;;;;;;;3.58;71.97168;94918.87;;;;
2021/11/22 04:13:57;;;;;;;20.9;11.1;;;;;;;3.58;71.97168;94918.87;;;;
2021/11/22 04:14:57;;;;;;;20.9;11.1;;;;;;;3.58;71.97168;94918.87;;;;
2021/11/22 04:16:00;;;;;;;20.9;11.1;;;;;;;3.58;71.97168;94918.87;;;;
2021/11/22 04:17:00;;;;;;;20.35;11.25;;;;;;;3.58;72.13965;94925.12;;;;
2021/11/22 04:18:01;;;;;;;20.35;11.25;;;;;;;3.58;72.13965;94925.12;;;;
2021/11/22 04:19:02;;;;;;;20.35;11.25;;;;;;;3.58;72.13965;94925.12;;;;
2021/11/22 04:20:03;;;;;;;20.35;11.25;;;;;;;3.58;72.13965;94925.12;;;;
2021/11/22 04:21:05;;;;;;;20.35;11.25;;;;;;;3.58;72.13965;94925.12;;;;
2021/11/22 04:22:06;;;;;;;20.35;11.25;;;;;;;3.58;72.13965;94925.12;;;;
2021/11/22 04:23:07;;;;;;;20.35;11.25;;;;;;;3.58;72.13965;94925.12;;;;
2021/11/22 04:24:09;;;;;;;20.35;11.25;;;;;;;3.58;72.13965;94925.12;;;;
2021/11/22 04:25:09;;;;;;;20.35;11.25;;;;;;;3.58;72.13965;94925.12;;;;
2021/11/22 04:26:11;;;;;;;20.35;11.25;;;;;;;3.58;72.13965;94925.12;;;;
2021/11/22 04:27:12;;;;;;;20.35;11.25;;;;;;;3.58;72.13965;94925.12;;;;
2021/11/22 04:28:13;;;;;;;24.1;11.7;;;;;;;3.58;72.29785;94933.54;;;;
2021/11/22 04:29:14;;;;;;;24.1;11.7;;;;;;;3.58;72.29785;94933.54;;;;
2021/11/22 04:30:14;;;;;;;24.1;11.7;;;;;;;3.58;72.29785;94933.54;;;;
2021/11/22 04:31:16;;;;;;;24.1;11.7;;;;;;;3.58;72.29785;94933.54;;;;
2021/11/22 04:32:18;;;;;;;24.1;11.7;;;;;;;3.58;72.29785;94933.54;;;;
2021/11/22 04:33:18;;;;;;;24.1;11.7;;;;;;;3.58;72.29785;94933.54;;;;
2021/11/22 04:34:19;;;;;;;24.1;11.7;;;;;;;3.58;72.29785;94933.54;;;;
2021/11/22 04:35:19;;;;;;;24.1;11.7;;;;;;;3.58;72.29785;94933.54;;;;
2021/11/22 04:36:20;;;;;;;24.1;11.7;;;;;;;3.58;72.29785;94933.54;;;;
2021/11/22 04:37:25;;;;;;;24.1;11.7;;;;;;;3.58;72.29785;94933.54;;;;
2021/11/22 04:38:26;;;;;;;20.55;11.35;;;;;;;3.61;72.4082;94958.61;;;;
2021/11/22 04:39:26;;;;;;;20.55;11.35;;;;;;;3.61;72.4082;94958.61;;;;
2021/11/22 04:40:27;;;;;;;20.55;11.35;;;;;;;3.61;72.4082;94958.61;;;;
2021/11/22 04:41:27;;;;;;;20.55;11.35;;;;;;;3.61;72.4082;94958.61;;;;
2021/11/22 04:42:28;;;;;;;20.55;11.35;;;;;;;3.61;72.4082;94958.61;;;;
2021/11/22 04:43:29;;;;;;;20.55;11.35;;;;;;;3.61;72.4082;94958.61;;;;
2021/11/22 04:44:29;;;;;;;20.55;11.35;;;;;;;3.61;72.4082;94958.61;;;;
2021/11/22 04:45:30;;;;;;;20.55;11.35;;;;;;;3.61;72.4082;94958.61;;;;
2021/11/22 04:46:31;;;;;;;20.55;11.35;;;;;;;3.61;72.4082;94958.61;;;;
2021/11/22 04:47:32;;;;;;;20.55;11.35;;;;;;;3.61;72.4082;94958.61;;;;
2021/11/22 04:48:33;;;;;;;20.55;11.35;;;;;;;3.61;72.4082;94958.61;;;;
2021/11/22 04:49:34;;;;;;;22;11.65;;;;;;;3.63;72.53711;94967.24;;;;
2021/11/22 04:50:34;;;;;;;22;11.65;;;;;;;3.63;72.53711;94967.24;;;;
2021/11/22 04:51:36;;;;;;;22;11.65;;;;;;;3.63;72.53711;94967.24;;;;
2021/11/22 04:52:36;;;;;;;22;11.65;;;;;;;3.63;72.53711;94967.24;;;;
2021/11/22 04:53:37;;;;;;;22;11.65;;;;;;;3.63;72.53711;94967.24;;;;
2021/11/22 04:54:38;;;;;;;22;11.65;;;;;;;3.63;72.53711;94967.24;;;;
2021/11/22 04:55:39;;;;;;;22;11.65;;;;;;;3.63;72.53711;94967.24;;;;
2021/11/22 04:56:40;;;;;;;22;11.65;;;;;;;3.63;72.53711;94967.24;;;;
2021/11/22 04:57:40;;;;;;;22;11.65;;;;;;;3.63;72.53711;94967.24;;;;
2021/11/22 04:58:41;;;;;;;22;11.65;;;;;;;3.63;72.53711;94967.24;;;;
2021/11/22 04:59:42;;;;;;;22.8;11.75;;;;;;;3.58;72.66602;94969.16;;;;
2021/11/22 05:00:43;;;;;;;22.8;11.75;;;;;;;3.58;72.66602;94969.16;;;;
2021/11/22 05:01:44;;;;;;;22.8;11.75;;;;;;;3.58;72.66602;94969.16;;;;
2021/11/22 05:02:45;;;;;;;22.8;11.75;;;;;;;3.58;72.66602;94969.16;;;;
2021/11/22 05:03:48;;;;;;;22.8;11.75;;;;;;;3.58;72.66602;94969.16;;;;
2021/11/22 05:04:50;;;;;;;22.8;11.75;;;;;;;3.58;72.66602;94969.16;;;;
2021/11/22 05:05:50;;;;;;;22.8;11.75;;;;;;;3.58;72.66602;94969.16;;;;
2021/11/22 05:06:51;;;;;;;22.8;11.75;;;;;;;3.58;72.66602;94969.16;;;;
2021/11/22 05:07:52;;;;;;;22.8;11.75;;;;;;;3.58;72.66602;94969.16;;;;
2021/11/22 05:08:53;;;;;;;22.8;11.75;;;;;;;3.58;72.66602;94969.16;;;;
2021/11/22 05:09:53;;;;;;;22.8;11.75;;;;;;;3.58;72.66602;94969.16;;;;
2021/11/22 05:10:54;;;;;;;22.35;11.55;;;;;;;3.62;72.8623;94975.75;;;;
2021/11/22 05:11:54;;;;;;;22.35;11.55;;;;;;;3.62;72.8623;94975.75;;;;
2021/11/22 05:12:55;;;;;;;22.35;11.55;;;;;;;3.62;72.8623;94975.75;;;;
2021/11/22 05:13:56;;;;;;;22.35;11.55;;;;;;;3.62;72.8623;94975.75;;;;
2021/11/22 05:14:56;;;;;;;22.35;11.55;;;;;;;3.62;72.8623;94975.75;;;;
2021/11/22 05:15:57;;;;;;;22.35;11.55;;;;;;;3.62;72.8623;94975.75;;;;
2021/11/22 05:16:58;;;;;;;22.35;11.55;;;;;;;3.62;72.8623;94975.75;;;;
2021/11/22 05:17:59;;;;;;;22.35;11.55;;;;;;;3.62;72.8623;94975.75;;;;
2021/11/22 05:19:00;;;;;;;22.35;11.55;;;;;;;3.62;72.8623;94975.75;;;;
2021/11/22 05:20:00;;;;;;;22.35;11.55;;;;;;;3.62;72.8623;94975.75;;;;
2021/11/22 05:21:02;;;;;;;23.3;12.45;;;;;;;3.65;72.95313;94979.76;;;;
2021/11/22 05:22:03;;;;;;;23.3;12.45;;;;;;;3.65;72.95313;94979.76;;;;
2021/11/22 05:23:03;;;;;;;23.3;12.45;;;;;;;3.65;72.95313;94979.76;;;;
2021/11/22 05:24:04;;;;;;;23.3;12.45;;;;;;;3.65;72.95313;94979.76;;;;
2021/11/22 05:25:05;;;;;;;23.3;12.45;;;;;;;3.65;72.95313;94979.76;;;;
2021/11/22 05:26:06;;;;;;;23.3;12.45;;;;;;;3.65;72.95313;94979.76;;;;
2021/11/22 05:27:07;;;;;;;23.3;12.45;;;;;;;3.65;72.95313;94979.76;;;;
2021/11/22 05:28:07;;;;;;;23.3;12.45;;;;;;;3.65;72.95313;94979.76;;;;
2021/11/22 05:29:09;;;;;;;23.3;12.45;;;;;;;3.65;72.95313;94979.76;;;;
2021/11/22 05:30:10;;;;;;;23.3;12.45;;;;;;;3.65;72.95313;94979.76;;;;
2021/11/22 05:31:11;;;;;;;23.3;12.45;;;;;;;3.65;72.95313;94979.76;;;;
2021/11/22 05:32:15;;;;;;;24.7;11.65;;;;;;;3.66;73.06934;94983.67;;;;
2021/11/22 05:33:17;;;;;;;24.7;11.65;;;;;;;3.66;73.06934;94983.67;;;;
2021/11/22 05:34:19;;;;;;;24.7;11.65;;;;;;;3.66;73.06934;94983.67;;;;
2021/11/22 05:35:19;;;;;;;24.7;11.65;;;;;;;3.66;73.06934;94983.67;;;;
2021/11/22 05:36:20;;;;;;;24.7;11.65;;;;;;;3.66;73.06934;94983.67;;;;
2021/11/22 05:37:21;;;;;;;24.7;11.65;;;;;;;3.66;73.06934;94983.67;;;;
2021/11/22 05:38:21;;;;;;;24.7;11.65;;;;;;;3.66;73.06934;94983.67;;;;
2021/11/22 05:39:22;;;;;;;24.7;11.65;;;;;;;3.66;73.06934;94983.67;;;;
2021/11/22 05:40:23;;;;;;;24.7;11.65;;;;;;;3.66;73.06934;94983.67;;;;
2021/11/22 05:41:24;;;;;;;24.7;11.65;;;;;;;3.66;73.06934;94983.67;;;;
2021/11/22 05:42:25;;;;;;;23.65;12.7;;;;;;;3.59;73.26855;94993.09;;;;
2021/11/22 05:43:25;;;;;;;23.65;12.7;;;;;;;3.59;73.26855;94993.09;;;;